Time;durP1;ratioP1;P1;durP2;ratioP2;P2;SDS_P1;SDS_P2;PMS_P1;PMS_P2;Temp;Humidity;BMP_temperature;BMP_pressure;BME280_temperature;BME280_humidity;BME280_pressure;Samples;Min_cycle;Max_cycle;Signal;HPM_P1;HPM_P2
2021/01/26 00:00:42;;;;;;;38.88;18.70;;;1.50;99.90;;;;;;5028114;28;20043;-63
2021/01/26 00:03:08;;;;;;;43.92;18.95;;;1.50;99.90;;;;;;5028861;28;20043;-63
2021/01/26 00:05:33;;;;;;;32.30;18.83;;;1.50;99.90;;;;;;5029749;28;20053;-61
2021/01/26 00:07:59;;;;;;;27.23;16.80;;;1.60;99.90;;;;;;5028549;28;20041;-61
2021/01/26 00:10:24;;;;;;;36.90;17.90;;;1.60;99.90;;;;;;5023039;28;20030;-60
2021/01/26 00:12:50;;;;;;;37.75;17.80;;;1.60;99.90;;;;;;5028647;28;20489;-61
2021/01/26 00:15:16;;;;;;;37.33;18.25;;;1.70;99.90;;;;;;5028673;28;20022;-60
2021/01/26 00:17:41;;;;;;;35.92;16.90;;;1.60;99.90;;;;;;5028451;28;20095;-62
2021/01/26 00:20:12;;;;;;;34.40;17.23;;;1.60;99.90;;;;;;5027616;28;20049;-62
2021/01/26 00:22:38;;;;;;;34.25;16.92;;;1.70;99.90;;;;;;5028221;28;21045;-61
2021/01/26 00:25:05;;;;;;;35.05;16.83;;;1.60;99.90;;;;;;5029828;28;20481;-60
2021/01/26 00:27:31;;;;;;;32.75;16.75;;;1.60;99.90;;;;;;5028245;28;20037;-59
2021/01/26 00:29:56;;;;;;;46.90;18.42;;;1.60;99.90;;;;;;5025289;28;20542;-61
2021/01/26 00:32:22;;;;;;;38.45;17.02;;;1.60;99.90;;;;;;5022180;28;20479;-62
2021/01/26 00:34:47;;;;;;;32.65;15.98;;;1.70;99.90;;;;;;5028931;28;20522;-62
2021/01/26 00:37:13;;;;;;;32.20;15.77;;;1.70;99.90;;;;;;5028629;28;20190;-59
2021/01/26 00:39:38;;;;;;;32.13;15.70;;;1.70;99.90;;;;;;5027903;28;20029;-60
2021/01/26 00:42:04;;;;;;;34.08;16.40;;;1.70;99.90;;;;;;5028924;28;20032;-59
2021/01/26 00:44:30;;;;;;;34.53;16.52;;;1.70;99.90;;;;;;5030370;28;20128;-61
2021/01/26 00:46:55;;;;;;;29.75;17.40;;;1.70;99.90;;;;;;5041547;28;20474;-61
2021/01/26 00:49:21;;;;;;;32.15;14.70;;;1.70;99.90;;;;;;5030070;28;20026;-60
2021/01/26 00:51:46;;;;;;;37.95;17.52;;;1.70;99.90;;;;;;5028006;28;20104;-62
2021/01/26 00:54:12;;;;;;;34.15;16.83;;;1.70;99.90;;;;;;5028795;28;20084;-61
2021/01/26 00:56:37;;;;;;;32.72;18.27;;;1.80;99.90;;;;;;5028285;28;20037;-61
2021/01/26 00:59:03;;;;;;;35.50;16.35;;;1.80;99.90;;;;;;5028550;28;20501;-63
2021/01/26 01:01:28;;;;;;;36.33;16.92;;;1.80;99.90;;;;;;5031789;28;20036;-61
2021/01/26 01:03:54;;;;;;;35.58;17.83;;;1.80;99.90;;;;;;5036242;28;20517;-60
2021/01/26 01:06:20;;;;;;;29.67;17.65;;;1.80;99.90;;;;;;5044075;28;20465;-63
2021/01/26 01:08:45;;;;;;;46.28;19.25;;;1.80;99.90;;;;;;5031656;28;20052;-60
2021/01/26 01:11:11;;;;;;;38.13;18.60;;;1.80;99.90;;;;;;5032472;28;20433;-59
2021/01/26 01:13:36;;;;;;;38.28;17.70;;;1.80;99.90;;;;;;5031891;28;20552;-60
2021/01/26 01:16:03;;;;;;;36.00;17.40;;;1.80;99.90;;;;;;5031079;28;20122;-61
2021/01/26 01:18:28;;;;;;;34.58;18.33;;;1.80;99.90;;;;;;5031668;28;20033;-61
2021/01/26 01:20:54;;;;;;;40.38;18.15;;;1.80;99.90;;;;;;5024967;28;20072;-61
2021/01/26 01:23:19;;;;;;;36.03;16.80;;;1.90;99.90;;;;;;5032293;28;20039;-60
2021/01/26 01:25:45;;;;;;;37.35;18.73;;;1.80;99.90;;;;;;5031810;28;20478;-64
2021/01/26 01:28:11;;;;;;;42.83;19.73;;;1.90;99.90;;;;;;5032374;28;20521;-62
2021/01/26 01:30:36;;;;;;;31.65;17.00;;;1.80;99.90;;;;;;5029698;28;20029;-63
2021/01/26 01:33:05;;;;;;;36.50;17.77;;;1.80;99.90;;;;;;5028983;28;20021;-62
2021/01/26 01:35:31;;;;;;;29.63;15.98;;;1.80;99.90;;;;;;5040678;28;20025;-61
2021/01/26 01:37:56;;;;;;;33.90;16.45;;;1.80;99.90;;;;;;5030959;28;20617;-62
2021/01/26 01:40:33;;;;;;;32.78;15.63;;;1.80;99.90;;;;;;5031060;28;20032;-61
2021/01/26 01:42:59;;;;;;;26.75;15.02;;;1.80;99.90;;;;;;5030262;28;20053;-61
2021/01/26 01:45:27;;;;;;;30.55;15.32;;;1.80;99.90;;;;;;5036338;28;20028;-60
2021/01/26 01:47:58;;;;;;;30.50;15.93;;;1.80;99.90;;;;;;5030966;28;20068;-59
2021/01/26 01:50:37;;;;;;;29.13;14.18;;;1.80;99.90;;;;;;5031465;28;20112;-63
2021/01/26 01:53:12;;;;;;;30.50;14.82;;;1.90;99.90;;;;;;5031022;28;20382;-62
2021/01/26 01:55:41;;;;;;;31.00;16.67;;;1.90;99.90;;;;;;5039687;28;20034;-60
2021/01/26 01:58:13;;;;;;;30.27;15.80;;;1.90;99.90;;;;;;5030916;28;20044;-61
2021/01/26 02:00:39;;;;;;;37.22;15.73;;;1.90;99.90;;;;;;5023230;28;20037;-62
2021/01/26 02:03:15;;;;;;;29.25;16.00;;;1.80;99.90;;;;;;5031197;28;20064;-61
2021/01/26 02:05:41;;;;;;;31.63;15.10;;;1.80;99.90;;;;;;5030860;28;20031;-64
2021/01/26 02:08:16;;;;;;;42.05;16.52;;;1.80;99.90;;;;;;5030577;28;20021;-61
2021/01/26 02:10:43;;;;;;;30.58;15.35;;;1.80;99.90;;;;;;5030711;28;20033;-61
2021/01/26 02:13:08;;;;;;;29.17;14.90;;;1.70;99.90;;;;;;5038434;28;20048;-62
2021/01/26 02:15:34;;;;;;;29.80;15.52;;;1.80;99.90;;;;;;5034260;28;20034;-60
2021/01/26 02:18:16;;;;;;;33.67;13.77;;;1.80;99.90;;;;;;5030785;28;20379;-62
2021/01/26 02:21:19;;;;;;;27.63;14.43;;;1.80;99.90;;;;;;5029986;28;20485;-60
2021/01/26 02:24:26;;;;;;;30.92;14.48;;;1.70;99.90;;;;;;5029924;28;20125;-61
2021/01/26 02:27:06;;;;;;;27.27;15.40;;;1.60;99.90;;;;;;4991627;28;20124;-60
2021/01/26 02:29:44;;;;;;;27.38;12.55;;;1.60;99.90;;;;;;5028001;28;20183;-60
2021/01/26 02:32:25;;;;;;;22.70;13.13;;;1.60;99.90;;;;;;5028256;28;20141;-61
2021/01/26 02:35:18;;;;;;;30.25;13.75;;;1.60;99.90;;;;;;5023895;28;20029;-60
2021/01/26 02:38:06;;;;;;;32.08;14.02;;;1.60;99.90;;;;;;5028707;28;20116;-59
2021/01/26 02:40:44;;;;;;;37.00;14.82;;;1.60;99.90;;;;;;5030284;28;20080;-60
2021/01/26 02:43:39;;;;;;;40.03;14.02;;;1.70;99.90;;;;;;5026208;28;20460;-59
2021/01/26 02:46:39;;;;;;;35.10;16.05;;;1.70;99.90;;;;;;5022847;28;20094;-61
2021/01/26 02:49:40;;;;;;;27.67;14.88;;;1.80;99.90;;;;;;5026186;28;20407;-61
2021/01/26 02:52:28;;;;;;;35.17;12.38;;;1.80;99.90;;;;;;5029288;28;20129;-59
2021/01/26 02:55:01;;;;;;;29.20;11.75;;;1.90;99.90;;;;;;5029077;28;20040;-61
2021/01/26 02:57:34;;;;;;;34.78;13.73;;;1.90;99.90;;;;;;5031831;28;20057;-61
2021/01/26 03:00:35;;;;;;;27.65;12.35;;;1.90;99.90;;;;;;5039273;28;20104;-61
2021/01/26 03:03:13;;;;;;;28.90;11.85;;;1.90;99.90;;;;;;5005459;28;20048;-60
2021/01/26 03:05:44;;;;;;;21.40;12.60;;;1.90;99.90;;;;;;5029576;28;20494;-62
2021/01/26 03:08:17;;;;;;;27.08;11.52;;;1.90;99.90;;;;;;5028494;28;20494;-60
2021/01/26 03:10:50;;;;;;;27.70;13.18;;;1.90;99.90;;;;;;4963006;28;20069;-60
2021/01/26 03:13:19;;;;;;;25.30;12.80;;;2.00;99.90;;;;;;4982575;28;20031;-62
2021/01/26 03:15:51;;;;;;;28.52;12.85;;;1.90;99.90;;;;;;4970060;28;20023;-61
2021/01/26 03:18:20;;;;;;;32.45;13.00;;;2.00;99.90;;;;;;4970018;28;20530;-61
2021/01/26 03:20:56;;;;;;;28.08;12.35;;;2.00;99.90;;;;;;4960400;28;20058;-63
2021/01/26 03:23:32;;;;;;;30.88;12.55;;;1.90;99.90;;;;;;4966576;28;20124;-57
2021/01/26 03:26:02;;;;;;;24.63;11.43;;;1.90;99.90;;;;;;4979821;28;20031;-59
2021/01/26 03:28:29;;;;;;;24.52;10.60;;;1.90;99.90;;;;;;4967624;28;20090;-60
2021/01/26 03:30:58;;;;;;;22.83;11.73;;;2.00;99.90;;;;;;4967900;28;20030;-62
2021/01/26 03:33:32;;;;;;;25.17;10.75;;;2.00;99.90;;;;;;4982218;28;20542;-62
2021/01/26 03:35:58;;;;;;;19.17;10.20;;;2.00;99.90;;;;;;4972059;28;20050;-61
2021/01/26 03:38:30;;;;;;;26.50;10.93;;;2.00;99.90;;;;;;4971669;28;20437;-62
2021/01/26 03:40:57;;;;;;;29.45;10.13;;;1.90;99.90;;;;;;4970046;28;20038;-62
2021/01/26 03:43:23;;;;;;;24.30;9.77;;;1.90;99.90;;;;;;4971158;28;20031;-60
2021/01/26 03:46:05;;;;;;;26.50;10.98;;;1.90;99.90;;;;;;4968719;28;20049;-61
2021/01/26 03:48:34;;;;;;;23.05;10.07;;;1.90;99.90;;;;;;4971213;28;20030;-60
2021/01/26 03:51:31;;;;;;;22.35;10.07;;;1.90;99.90;;;;;;4970895;28;20031;-60
2021/01/26 03:54:16;;;;;;;21.45;11.27;;;1.90;99.90;;;;;;4978646;28;20026;-61
2021/01/26 03:57:12;;;;;;;22.65;11.20;;;1.90;99.90;;;;;;4960905;28;20127;-63
2021/01/26 03:59:58;;;;;;;31.27;11.13;;;1.90;99.90;;;;;;4971735;28;20099;-60
2021/01/26 04:02:30;;;;;;;21.38;9.05;;;1.90;99.90;;;;;;4971171;28;20031;-59
2021/01/26 04:05:11;;;;;;;26.67;10.95;;;1.90;99.90;;;;;;4972784;28;20026;-62
2021/01/26 04:07:44;;;;;;;26.83;10.13;;;1.90;99.90;;;;;;4969316;28;20031;-60
2021/01/26 04:10:24;;;;;;;28.10;10.40;;;2.00;99.90;;;;;;4942974;28;20529;-62
2021/01/26 04:12:55;;;;;;;26.48;10.05;;;2.00;99.90;;;;;;4972441;28;20085;-61
2021/01/26 04:15:43;;;;;;;24.02;10.15;;;2.00;99.90;;;;;;4970505;28;20388;-61
2021/01/26 04:18:14;;;;;;;19.40;9.77;;;2.00;99.90;;;;;;4980303;28;20035;-62
2021/01/26 04:20:41;;;;;;;21.95;10.65;;;2.10;99.90;;;;;;4969433;28;20034;-63
2021/01/26 04:23:08;;;;;;;25.95;10.57;;;2.00;99.90;;;;;;4979903;28;20039;-62
2021/01/26 04:25:43;;;;;;;25.30;10.50;;;2.10;99.90;;;;;;4970537;28;20031;-61
2021/01/26 04:28:15;;;;;;;21.55;9.80;;;2.00;99.90;;;;;;4973753;28;20157;-61
2021/01/26 04:30:41;;;;;;;23.75;11.05;;;2.10;99.90;;;;;;4974302;28;20031;-62
2021/01/26 04:33:10;;;;;;;24.50;10.48;;;2.10;99.90;;;;;;4970583;28;20109;-61
2021/01/26 04:35:36;;;;;;;27.88;11.27;;;2.00;99.90;;;;;;4972263;28;20053;-63
2021/01/26 04:38:03;;;;;;;22.17;9.98;;;2.00;99.90;;;;;;4971665;28;20070;-61
2021/01/26 04:40:30;;;;;;;23.42;10.13;;;2.00;99.90;;;;;;4982464;28;20030;-58
2021/01/26 04:43:11;;;;;;;27.38;10.18;;;2.00;99.90;;;;;;4976304;28;20035;-63
2021/01/26 04:45:45;;;;;;;29.25;10.35;;;2.00;99.90;;;;;;4974702;28;20034;-62
2021/01/26 04:48:18;;;;;;;29.30;10.75;;;2.00;99.90;;;;;;4974460;28;20848;-60
2021/01/26 04:50:57;;;;;;;23.42;10.50;;;2.00;99.90;;;;;;4973210;28;20046;-62
2021/01/26 04:53:49;;;;;;;21.85;10.52;;;1.90;99.90;;;;;;4971285;28;20027;-59
2021/01/26 04:56:21;;;;;;;31.63;11.23;;;2.00;99.90;;;;;;4966153;28;20015;-59
2021/01/26 04:59:17;;;;;;;24.90;10.25;;;2.00;99.90;;;;;;4983091;28;20042;-59
2021/01/26 05:02:16;;;;;;;32.00;10.95;;;2.00;99.90;;;;;;4970885;28;20034;-60
2021/01/26 05:04:51;;;;;;;26.52;10.48;;;2.00;99.90;;;;;;4976687;28;20073;-60
2021/01/26 05:07:25;;;;;;;24.90;10.50;;;1.90;99.90;;;;;;4979804;28;20033;-62
2021/01/26 05:09:57;;;;;;;22.83;10.15;;;1.90;99.90;;;;;;4947773;28;20038;-61
2021/01/26 05:12:25;;;;;;;24.05;9.15;;;1.90;99.90;;;;;;4978337;28;20118;-61
2021/01/26 05:14:55;;;;;;;26.00;10.35;;;1.90;99.90;;;;;;4976119;28;20109;-61
2021/01/26 05:17:28;;;;;;;24.40;9.27;;;1.90;99.90;;;;;;4972732;28;20027;-59
2021/01/26 05:20:10;;;;;;;17.83;9.65;;;1.90;99.90;;;;;;4976794;28;20019;-62
2021/01/26 05:22:53;;;;;;;25.85;10.13;;;1.90;99.90;;;;;;4976092;28;20391;-61
2021/01/26 05:25:22;;;;;;;26.73;9.80;;;1.90;99.90;;;;;;4978377;28;20115;-62
2021/01/26 05:27:48;;;;;;;31.80;9.88;;;1.90;99.90;;;;;;4967535;28;20129;-62
2021/01/26 05:30:37;;;;;;;19.40;10.10;;;1.90;99.90;;;;;;4974158;28;20023;-62
2021/01/26 05:33:07;;;;;;;22.95;9.38;;;1.90;99.90;;;;;;4971469;28;20046;-62
2021/01/26 05:35:34;;;;;;;24.15;8.75;;;1.90;99.90;;;;;;4978253;28;20030;-59
2021/01/26 05:38:00;;;;;;;42.58;10.77;;;1.90;99.90;;;;;;4980890;28;20033;-60
2021/01/26 05:40:29;;;;;;;27.13;9.75;;;1.90;99.90;;;;;;4974628;28;20109;-60
2021/01/26 05:43:00;;;;;;;26.42;9.55;;;1.90;99.90;;;;;;4960184;28;20027;-61
2021/01/26 05:45:39;;;;;;;34.40;11.55;;;1.90;99.90;;;;;;4972723;28;20388;-60
2021/01/26 05:48:08;;;;;;;23.73;9.50;;;1.90;99.90;;;;;;4971487;28;20497;-62
2021/01/26 05:50:36;;;;;;;27.33;9.57;;;1.90;99.90;;;;;;4973736;28;20038;-61
2021/01/26 05:53:11;;;;;;;27.17;9.65;;;1.90;99.90;;;;;;4973009;28;20038;-62
2021/01/26 05:55:37;;;;;;;37.38;17.02;;;1.90;99.90;;;;;;4976896;28;20078;-60
2021/01/26 05:58:08;;;;;;;22.35;10.10;;;1.90;99.90;;;;;;4977542;28;20479;-61
2021/01/26 06:00:35;;;;;;;28.13;13.40;;;1.90;99.90;;;;;;4975895;28;20022;-58
2021/01/26 06:03:18;;;;;;;110.22;47.60;;;1.90;99.90;;;;;;4969582;28;20030;-62
2021/01/26 06:06:02;;;;;;;27.75;10.57;;;1.80;99.90;;;;;;4970668;28;20024;-60
2021/01/26 06:08:28;;;;;;;29.77;13.57;;;1.80;99.90;;;;;;4973923;28;20058;-61
2021/01/26 06:10:54;;;;;;;23.85;10.25;;;1.70;99.90;;;;;;4958644;28;20038;-60
2021/01/26 06:13:29;;;;;;;31.00;12.88;;;1.80;99.90;;;;;;4976184;28;20426;-59
2021/01/26 06:16:13;;;;;;;26.48;11.13;;;1.70;99.90;;;;;;4973117;28;20110;-62
2021/01/26 06:18:58;;;;;;;28.90;12.75;;;1.70;99.90;;;;;;4970258;28;20031;-61
2021/01/26 06:21:25;;;;;;;18.05;10.65;;;1.60;99.90;;;;;;4970840;28;20027;-62
2021/01/26 06:23:51;;;;;;;27.20;12.63;;;1.70;99.90;;;;;;4975215;28;20525;-58
2021/01/26 06:26:16;;;;;;;24.50;12.15;;;1.60;99.90;;;;;;4973269;28;20043;-60
2021/01/26 06:28:55;;;;;;;39.45;12.68;;;1.70;99.90;;;;;;4970215;28;20027;-62
2021/01/26 06:31:45;;;;;;;28.73;12.63;;;1.70;99.90;;;;;;4974749;28;20026;-62
2021/01/26 06:34:22;;;;;;;26.02;11.70;;;1.70;99.90;;;;;;4975248;28;20034;-60
2021/01/26 06:37:08;;;;;;;29.70;12.50;;;1.80;99.90;;;;;;4966413;28;20522;-60
2021/01/26 06:40:05;;;;;;;25.20;10.57;;;1.80;99.90;;;;;;4976222;28;20026;-60
2021/01/26 06:42:41;;;;;;;28.73;11.00;;;1.80;99.90;;;;;;4968249;28;20050;-62
2021/01/26 06:45:26;;;;;;;27.35;13.10;;;1.80;99.90;;;;;;4964180;28;20088;-64
2021/01/26 06:48:21;;;;;;;31.75;11.90;;;1.70;99.90;;;;;;4977167;28;20035;-59
2021/01/26 06:51:21;;;;;;;21.40;10.93;;;1.80;99.90;;;;;;4969633;28;20733;-61
2021/01/26 06:54:15;;;;;;;27.25;12.15;;;1.80;99.90;;;;;;4977000;28;20193;-62
2021/01/26 06:57:03;;;;;;;22.15;11.13;;;1.80;99.90;;;;;;4982234;28;20083;-61
2021/01/26 06:59:44;;;;;;;25.58;11.80;;;1.70;99.90;;;;;;4977626;28;20097;-61
2021/01/26 07:02:54;;;;;;;28.27;12.48;;;1.70;99.90;;;;;;4973718;28;20029;-62
2021/01/26 07:05:32;;;;;;;28.27;12.60;;;1.70;99.90;;;;;;4970640;28;20500;-63
2021/01/26 07:08:08;;;;;;;31.17;13.10;;;1.80;99.90;;;;;;4968416;28;20034;-60
2021/01/26 07:11:11;;;;;;;42.80;12.82;;;1.70;99.90;;;;;;4947680;28;20065;-62
2021/01/26 07:13:49;;;;;;;25.48;12.18;;;1.70;99.90;;;;;;4962887;28;20045;-62
2021/01/26 07:16:54;;;;;;;31.75;12.05;;;1.70;99.90;;;;;;4967185;28;20034;-61
2021/01/26 07:19:49;;;;;;;31.23;12.52;;;1.70;99.90;;;;;;4978035;28;20026;-61
2021/01/26 07:22:29;;;;;;;20.17;10.02;;;1.80;99.90;;;;;;4972912;28;20023;-62
2021/01/26 07:25:25;;;;;;;21.50;11.73;;;1.80;99.90;;;;;;4969226;28;20063;-61
2021/01/26 07:28:17;;;;;;;29.27;11.02;;;1.80;99.90;;;;;;4970824;28;20126;-62
2021/01/26 07:31:18;;;;;;;22.27;10.88;;;1.80;99.90;;;;;;4975458;28;20483;-61
2021/01/26 07:33:56;;;;;;;39.63;12.02;;;1.90;99.90;;;;;;4965937;28;20031;-61
2021/01/26 07:36:35;;;;;;;22.60;11.40;;;1.90;99.90;;;;;;4985875;28;20066;-63
2021/01/26 07:39:16;;;;;;;31.17;11.23;;;1.90;99.90;;;;;;4976098;28;20027;-62
2021/01/26 07:41:59;;;;;;;28.90;11.45;;;1.90;99.90;;;;;;4971595;28;20037;-62
2021/01/26 07:44:45;;;;;;;32.75;11.95;;;1.90;99.90;;;;;;4968956;28;20046;-60
2021/01/26 07:47:41;;;;;;;22.95;10.45;;;1.90;99.90;;;;;;4973629;28;20035;-60
2021/01/26 07:50:18;;;;;;;24.88;10.48;;;1.80;99.90;;;;;;4965997;28;20027;-59
2021/01/26 07:52:46;;;;;;;19.08;11.25;;;1.90;99.90;;;;;;4970374;28;20041;-62
2021/01/26 07:55:23;;;;;;;31.45;11.50;;;1.80;99.90;;;;;;4970524;28;20416;-62
2021/01/26 07:58:02;;;;;;;26.48;12.75;;;1.90;99.90;;;;;;4967069;28;20034;-60
2021/01/26 08:00:31;;;;;;;25.52;12.20;;;1.90;99.90;;;;;;4969666;28;20035;-60
2021/01/26 08:02:58;;;;;;;30.77;11.93;;;1.90;99.90;;;;;;4970152;28;20053;-62
2021/01/26 08:05:47;;;;;;;23.63;11.68;;;1.90;99.90;;;;;;4973799;28;20031;-60
2021/01/26 08:08:32;;;;;;;28.13;12.38;;;1.90;99.90;;;;;;4970564;28;20113;-62
2021/01/26 08:11:22;;;;;;;22.95;10.45;;;1.90;99.90;;;;;;4970251;28;20475;-62
2021/01/26 08:13:52;;;;;;;24.42;11.90;;;1.90;99.90;;;;;;4964682;28;20886;-61
2021/01/26 08:16:51;;;;;;;27.65;11.27;;;1.90;99.90;;;;;;4951772;28;20050;-61
2021/01/26 08:19:31;;;;;;;27.70;12.27;;;1.90;99.90;;;;;;4969144;28;20332;-61
2021/01/26 08:21:58;;;;;;;24.08;11.70;;;1.90;99.90;;;;;;4964153;28;20037;-62
2021/01/26 08:24:33;;;;;;;28.08;11.50;;;1.90;99.90;;;;;;4978867;28;20487;-61
2021/01/26 08:27:33;;;;;;;30.23;10.75;;;1.90;99.90;;;;;;4978468;28;20601;-58
2021/01/26 08:30:00;;;;;;;26.30;12.27;;;1.80;99.90;;;;;;4967547;28;20031;-62
2021/01/26 08:32:26;;;;;;;30.27;11.77;;;1.80;99.90;;;;;;4971548;28;20487;-61
2021/01/26 08:35:10;;;;;;;22.38;11.75;;;1.80;99.90;;;;;;4970456;28;20034;-62
2021/01/26 08:37:41;;;;;;;33.47;14.18;;;1.80;99.90;;;;;;4971228;28;20491;-62
2021/01/26 08:40:15;;;;;;;26.75;12.45;;;1.80;99.90;;;;;;4966111;28;20099;-63
2021/01/26 08:42:40;;;;;;;24.52;12.07;;;1.80;99.90;;;;;;4969906;28;20046;-62
2021/01/26 08:45:26;;;;;;;27.77;11.32;;;1.90;99.90;;;;;;4978172;28;20027;-63
2021/01/26 08:47:54;;;;;;;32.35;11.95;;;1.90;99.90;;;;;;4967086;28;20085;-61
2021/01/26 08:51:01;;;;;;;19.55;10.25;;;1.90;99.90;;;;;;4975801;28;20038;-60
2021/01/26 08:53:27;;;;;;;27.48;10.85;;;2.00;99.90;;;;;;4966666;28;20026;-61
2021/01/26 08:55:56;;;;;;;25.98;10.18;;;2.00;99.90;;;;;;4965372;28;20042;-62
2021/01/26 08:58:48;;;;;;;29.83;9.80;;;2.10;99.90;;;;;;4969363;28;20102;-62
2021/01/26 09:01:23;;;;;;;21.42;9.43;;;2.10;99.90;;;;;;4970191;28;20019;-62
2021/01/26 09:03:57;;;;;;;27.60;11.50;;;2.10;99.90;;;;;;4965029;28;20507;-60
2021/01/26 09:06:43;;;;;;;19.13;9.07;;;2.00;99.90;;;;;;4969838;28;20383;-60
2021/01/26 09:09:21;;;;;;;19.38;9.18;;;2.00;99.90;;;;;;4969205;28;20031;-62
2021/01/26 09:11:52;;;;;;;19.48;8.75;;;2.00;99.90;;;;;;4974304;28;20092;-61
2021/01/26 09:14:42;;;;;;;18.10;7.85;;;1.90;99.90;;;;;;4977463;28;20567;-60
2021/01/26 09:17:29;;;;;;;14.43;7.03;;;1.90;99.90;;;;;;4944287;28;20565;-60
2021/01/26 09:20:04;;;;;;;20.70;7.97;;;1.80;99.90;;;;;;4974922;28;20089;-62
2021/01/26 09:22:31;;;;;;;19.17;9.10;;;1.80;99.90;;;;;;4974551;28;20077;-62
2021/01/26 09:25:13;;;;;;;28.02;10.35;;;1.80;99.90;;;;;;4972648;28;20081;-64
2021/01/26 09:27:39;;;;;;;24.95;10.95;;;1.90;99.90;;;;;;4973049;28;20035;-60
2021/01/26 09:30:31;;;;;;;28.45;10.40;;;1.90;99.90;;;;;;4977039;28;20034;-61
2021/01/26 09:32:56;;;;;;;28.13;10.40;;;1.90;99.90;;;;;;4971881;28;20089;-61
2021/01/26 09:35:39;;;;;;;27.15;10.77;;;1.90;99.90;;;;;;4976629;28;20023;-63
2021/01/26 09:38:19;;;;;;;16.33;9.85;;;2.00;99.90;;;;;;4977449;28;20302;-61
2021/01/26 09:40:57;;;;;;;18.05;9.93;;;2.10;99.90;;;;;;4965011;28;20018;-60
2021/01/26 09:43:33;;;;;;;20.73;9.23;;;2.10;99.90;;;;;;4973096;28;20039;-59
2021/01/26 09:46:02;;;;;;;24.85;9.60;;;2.10;99.90;;;;;;4975020;28;20043;-60
2021/01/26 09:48:49;;;;;;;21.77;9.88;;;2.10;99.90;;;;;;4978244;28;20439;-62
2021/01/26 09:51:17;;;;;;;28.80;11.48;;;2.20;99.90;;;;;;4973232;28;20027;-61
2021/01/26 09:53:46;;;;;;;22.77;9.48;;;2.20;99.90;;;;;;4970967;28;20403;-62
2021/01/26 09:56:15;;;;;;;19.75;8.82;;;2.20;99.90;;;;;;4972566;28;20014;-59
2021/01/26 09:58:44;;;;;;;16.60;8.20;;;2.30;99.90;;;;;;4976155;28;20022;-62
2021/01/26 10:01:10;;;;;;;26.15;10.18;;;2.30;99.90;;;;;;4970822;28;21258;-59
2021/01/26 10:03:36;;;;;;;20.98;9.05;;;2.20;99.90;;;;;;4972512;28;20062;-61
2021/01/26 10:06:03;;;;;;;28.77;9.50;;;2.20;99.90;;;;;;4972435;28;20487;-62
2021/01/26 10:08:31;;;;;;;20.83;10.02;;;2.30;99.90;;;;;;4971997;28;20034;-61
2021/01/26 10:11:10;;;;;;;26.63;9.80;;;2.30;99.90;;;;;;4973030;28;20103;-59
2021/01/26 10:13:37;;;;;;;22.38;10.18;;;2.30;99.90;;;;;;4988315;28;20030;-61
2021/01/26 10:16:23;;;;;;;29.40;17.20;;;2.40;99.90;;;;;;4973521;28;20098;-59
2021/01/26 10:18:49;;;;;;;18.83;9.90;;;2.40;99.90;;;;;;4943127;28;20051;-61
2021/01/26 10:21:25;;;;;;;20.13;9.27;;;2.40;99.90;;;;;;4972152;28;20432;-61
2021/01/26 10:23:58;;;;;;;25.23;8.60;;;2.50;99.90;;;;;;4973749;28;20038;-61
2021/01/26 10:26:26;;;;;;;15.05;7.72;;;2.60;99.90;;;;;;4971080;28;20058;-62
2021/01/26 10:29:07;;;;;;;18.85;9.25;;;2.60;99.90;;;;;;4977077;28;20034;-62
2021/01/26 10:31:40;;;;;;;17.52;7.78;;;2.60;99.90;;;;;;4978737;28;20074;-60
2021/01/26 10:34:24;;;;;;;13.13;8.05;;;2.70;99.90;;;;;;4974062;28;20062;-63
2021/01/26 10:36:50;;;;;;;21.35;8.20;;;2.80;99.90;;;;;;4973582;28;20041;-62
2021/01/26 10:39:29;;;;;;;20.17;8.45;;;2.80;99.90;;;;;;4983254;28;20030;-61
2021/01/26 10:42:00;;;;;;;18.38;8.50;;;2.80;99.90;;;;;;4966013;28;20129;-60
2021/01/26 10:44:25;;;;;;;15.60;8.02;;;2.90;99.90;;;;;;4975297;28;20514;-59
2021/01/26 10:46:53;;;;;;;16.80;7.90;;;2.90;99.90;;;;;;4975347;28;20030;-59
2021/01/26 10:49:31;;;;;;;18.52;8.45;;;2.90;99.90;;;;;;4972623;28;20708;-62
2021/01/26 10:52:06;;;;;;;16.58;7.85;;;2.90;99.90;;;;;;4970174;28;20098;-61
2021/01/26 10:54:32;;;;;;;14.82;7.30;;;2.90;99.90;;;;;;4977465;28;20030;-61
2021/01/26 10:56:58;;;;;;;16.52;7.72;;;2.90;99.90;;;;;;4975463;28;20022;-59
2021/01/26 10:59:23;;;;;;;19.85;7.78;;;2.90;99.90;;;;;;4981635;28;20077;-62
2021/01/26 11:01:49;;;;;;;16.35;7.82;;;3.00;99.90;;;;;;4977235;28;20181;-61
2021/01/26 11:04:17;;;;;;;16.30;8.50;;;3.10;99.90;;;;;;4968066;28;20034;-61
2021/01/26 11:06:43;;;;;;;19.40;7.95;;;3.10;99.90;;;;;;4971354;28;20514;-60
2021/01/26 11:09:10;;;;;;;15.38;7.63;;;3.20;99.90;;;;;;4970202;28;20059;-61
2021/01/26 11:11:36;;;;;;;21.50;7.53;;;3.20;99.90;;;;;;4980200;28;20080;-62
2021/01/26 11:14:04;;;;;;;15.95;6.70;;;3.10;99.90;;;;;;4975355;28;20571;-61
2021/01/26 11:16:30;;;;;;;18.73;8.18;;;3.00;99.90;;;;;;4970911;28;20034;-63
2021/01/26 11:18:56;;;;;;;14.63;7.15;;;3.00;99.90;;;;;;4954337;28;20042;-61
2021/01/26 11:21:23;;;;;;;25.90;8.95;;;3.00;99.90;;;;;;4970818;28;20046;-60
2021/01/26 11:23:48;;;;;;;11.70;6.53;;;3.00;99.90;;;;;;4971900;28;20030;-61
2021/01/26 11:26:16;;;;;;;13.50;7.15;;;3.00;99.90;;;;;;4968556;28;20038;-60
2021/01/26 11:28:43;;;;;;;13.30;7.47;;;2.90;99.90;;;;;;4969176;28;20767;-61
2021/01/26 11:31:09;;;;;;;22.50;8.32;;;2.80;99.90;;;;;;4974437;28;20030;-59
2021/01/26 11:33:36;;;;;;;19.92;7.85;;;2.80;99.90;;;;;;4979594;28;20041;-61
2021/01/26 11:36:03;;;;;;;20.23;7.93;;;2.80;99.90;;;;;;4972975;28;20046;-63
2021/01/26 11:38:29;;;;;;;23.23;8.43;;;2.90;99.90;;;;;;4972198;28;20049;-62
2021/01/26 11:40:56;;;;;;;16.42;8.27;;;2.90;99.90;;;;;;4969906;28;20035;-61
2021/01/26 11:43:21;;;;;;;21.27;8.50;;;2.90;99.90;;;;;;4971187;28;20022;-62
2021/01/26 11:45:47;;;;;;;12.60;7.75;;;3.00;99.90;;;;;;4983288;28;20669;-60
2021/01/26 11:48:13;;;;;;;16.83;7.90;;;3.10;99.90;;;;;;4971157;28;20036;-62
2021/01/26 11:50:39;;;;;;;21.55;7.47;;;3.20;99.90;;;;;;4971802;28;20034;-60
2021/01/26 11:53:07;;;;;;;16.75;8.38;;;3.20;99.90;;;;;;4981103;28;20407;-59
2021/01/26 11:55:33;;;;;;;18.42;8.07;;;3.20;99.90;;;;;;4971035;28;20928;-62
2021/01/26 11:57:59;;;;;;;17.95;7.10;;;3.20;99.90;;;;;;4977227;28;20018;-59
2021/01/26 12:00:28;;;;;;;17.38;8.25;;;3.20;99.90;;;;;;4977641;28;20554;-62
2021/01/26 12:02:54;;;;;;;11.80;7.70;;;3.20;99.90;;;;;;4974633;28;20026;-59
2021/01/26 12:05:22;;;;;;;19.10;8.52;;;3.10;99.90;;;;;;4970449;28;20031;-61
2021/01/26 12:07:48;;;;;;;19.48;8.60;;;3.20;99.90;;;;;;4970555;28;20030;-62
2021/01/26 12:10:15;;;;;;;19.83;7.13;;;3.30;99.90;;;;;;4971342;28;20027;-60
2021/01/26 12:12:40;;;;;;;20.88;7.00;;;3.40;99.90;;;;;;4971528;28;20038;-59
2021/01/26 12:15:08;;;;;;;16.13;7.47;;;3.40;99.90;;;;;;4980023;28;20033;-58
2021/01/26 12:17:34;;;;;;;23.75;7.40;;;3.50;99.90;;;;;;4978397;28;20050;-62
2021/01/26 12:19:59;;;;;;;14.90;7.40;;;3.50;99.90;;;;;;4954151;28;20047;-60
2021/01/26 12:22:25;;;;;;;15.18;6.93;;;3.70;99.90;;;;;;4984695;28;20038;-60
2021/01/26 12:24:50;;;;;;;16.33;6.80;;;3.70;99.90;;;;;;4975957;28;20034;-57
2021/01/26 12:27:16;;;;;;;22.20;7.53;;;3.60;99.90;;;;;;4984185;28;20504;-61
2021/01/26 12:29:42;;;;;;;18.67;7.50;;;3.70;99.90;;;;;;4981239;28;20057;-61
2021/01/26 12:32:08;;;;;;;13.75;7.60;;;3.50;99.90;;;;;;4978960;28;20140;-60
2021/01/26 12:34:33;;;;;;;18.90;6.38;;;3.50;99.90;;;;;;4971810;28;20031;-61
2021/01/26 12:36:59;;;;;;;15.35;6.10;;;3.50;99.90;;;;;;4976046;28;20774;-62
2021/01/26 12:39:25;;;;;;;16.48;6.63;;;3.50;99.90;;;;;;4966264;28;20647;-61
2021/01/26 12:41:50;;;;;;;23.08;7.13;;;3.50;99.90;;;;;;4982186;28;20027;-62
2021/01/26 12:44:17;;;;;;;21.02;7.18;;;3.40;99.90;;;;;;4969027;28;20041;-60
2021/01/26 12:46:43;;;;;;;15.55;7.05;;;3.40;99.90;;;;;;4972904;28;20027;-63
2021/01/26 12:49:10;;;;;;;16.20;8.50;;;3.50;99.90;;;;;;4971974;28;20412;-60
2021/01/26 12:51:35;;;;;;;21.27;7.13;;;3.50;99.90;;;;;;4968586;28;20459;-62
2021/01/26 12:54:01;;;;;;;16.27;7.72;;;3.60;99.90;;;;;;4967449;28;20504;-61
2021/01/26 12:56:26;;;;;;;17.13;7.43;;;3.60;99.90;;;;;;4965337;28;20059;-60
2021/01/26 12:58:52;;;;;;;23.55;7.63;;;3.70;99.90;;;;;;4964879;28;20138;-62
2021/01/26 13:01:18;;;;;;;14.32;5.85;;;3.70;99.90;;;;;;4981973;28;20031;-61
2021/01/26 13:03:43;;;;;;;17.67;6.63;;;3.90;99.90;;;;;;4973419;28;20046;-62
2021/01/26 13:06:09;;;;;;;14.82;6.35;;;4.00;99.90;;;;;;4981351;28;20030;-62
2021/01/26 13:08:35;;;;;;;19.60;6.05;;;4.10;99.90;;;;;;4979688;28;20038;-63
2021/01/26 13:11:00;;;;;;;14.70;6.25;;;4.10;99.90;;;;;;4973438;28;20031;-63
2021/01/26 13:13:28;;;;;;;15.77;6.47;;;4.20;99.90;;;;;;4972687;28;20046;-60